sensor_id;sensor_type;location;lat;lon;timestamp;P1;durP1;ratioP1;P2;durP2;ratioP2
67904;SDS011;54709;43.614;1.576;2023-12-28T00:02:21;9.23;;;6.00;;
67904;SDS011;54709;43.614;1.576;2023-12-28T00:04:46;10.82;;;5.90;;
67904;SDS011;54709;43.614;1.576;2023-12-28T00:07:12;7.88;;;6.25;;
67904;SDS011;54709;43.614;1.576;2023-12-28T00:09:38;7.93;;;5.45;;
67904;SDS011;54709;43.614;1.576;2023-12-28T00:12:03;11.10;;;6.95;;
67904;SDS011;54709;43.614;1.576;2023-12-28T00:14:30;11.00;;;6.78;;
67904;SDS011;54709;43.614;1.576;2023-12-28T00:16:55;12.77;;;6.22;;
67904;SDS011;54709;43.614;1.576;2023-12-28T00:19:20;10.05;;;6.78;;
67904;SDS011;54709;43.614;1.576;2023-12-28T00:21:46;9.32;;;6.13;;
67904;SDS011;54709;43.614;1.576;2023-12-28T00:24:11;10.85;;;6.85;;
67904;SDS011;54709;43.614;1.576;2023-12-28T00:26:37;7.32;;;5.72;;
67904;SDS011;54709;43.614;1.576;2023-12-28T00:29:02;11.20;;;6.35;;
67904;SDS011;54709;43.614;1.576;2023-12-28T00:31:27;9.27;;;5.80;;
67904;SDS011;54709;43.614;1.576;2023-12-28T00:33:53;12.27;;;6.65;;
67904;SDS011;54709;43.614;1.576;2023-12-28T00:36:18;12.55;;;6.22;;
67904;SDS011;54709;43.614;1.576;2023-12-28T00:38:43;14.13;;;8.70;;
67904;SDS011;54709;43.614;1.576;2023-12-28T00:41:09;27.95;;;15.82;;
67904;SDS011;54709;43.614;1.576;2023-12-28T00:43:34;13.05;;;7.90;;
67904;SDS011;54709;43.614;1.576;2023-12-28T00:45:59;13.02;;;5.97;;
67904;SDS011;54709;43.614;1.576;2023-12-28T00:48:25;9.65;;;5.90;;
67904;SDS011;54709;43.614;1.576;2023-12-28T00:50:50;7.43;;;5.32;;
67904;SDS011;54709;43.614;1.576;2023-12-28T00:53:15;9.52;;;5.60;;
67904;SDS011;54709;43.614;1.576;2023-12-28T00:55:41;13.98;;;5.68;;
67904;SDS011;54709;43.614;1.576;2023-12-28T00:58:06;9.38;;;5.82;;
67904;SDS011;54709;43.614;1.576;2023-12-28T01:00:31;9.00;;;6.25;;
67904;SDS011;54709;43.614;1.576;2023-12-28T01:02:57;8.27;;;5.80;;
67904;SDS011;54709;43.614;1.576;2023-12-28T01:05:22;8.55;;;6.35;;
67904;SDS011;54709;43.614;1.576;2023-12-28T01:07:51;11.65;;;6.80;;
67904;SDS011;54709;43.614;1.576;2023-12-28T01:10:16;13.07;;;7.00;;
67904;SDS011;54709;43.614;1.576;2023-12-28T01:12:42;11.60;;;7.57;;
67904;SDS011;54709;43.614;1.576;2023-12-28T01:15:07;10.18;;;6.97;;
67904;SDS011;54709;43.614;1.576;2023-12-28T01:17:33;10.05;;;7.25;;
67904;SDS011;54709;43.614;1.576;2023-12-28T01:19:58;13.60;;;7.03;;
67904;SDS011;54709;43.614;1.576;2023-12-28T01:22:24;11.38;;;6.82;;
67904;SDS011;54709;43.614;1.576;2023-12-28T01:24:49;11.02;;;6.75;;
67904;SDS011;54709;43.614;1.576;2023-12-28T01:27:14;10.55;;;7.13;;
67904;SDS011;54709;43.614;1.576;2023-12-28T01:29:40;11.02;;;6.75;;
67904;SDS011;54709;43.614;1.576;2023-12-28T01:32:05;11.05;;;7.22;;
67904;SDS011;54709;43.614;1.576;2023-12-28T01:34:31;10.70;;;6.70;;
67904;SDS011;54709;43.614;1.576;2023-12-28T01:36:56;11.15;;;7.65;;
67904;SDS011;54709;43.614;1.576;2023-12-28T01:39:21;11.43;;;7.93;;
67904;SDS011;54709;43.614;1.576;2023-12-28T01:41:47;11.15;;;7.53;;
67904;SDS011;54709;43.614;1.576;2023-12-28T01:44:12;16.25;;;7.50;;
67904;SDS011;54709;43.614;1.576;2023-12-28T01:46:37;10.68;;;7.35;;
67904;SDS011;54709;43.614;1.576;2023-12-28T01:49:03;11.88;;;7.18;;
67904;SDS011;54709;43.614;1.576;2023-12-28T01:51:28;9.93;;;7.22;;
67904;SDS011;54709;43.614;1.576;2023-12-28T01:53:54;14.43;;;7.40;;
67904;SDS011;54709;43.614;1.576;2023-12-28T01:56:19;9.27;;;6.65;;
67904;SDS011;54709;43.614;1.576;2023-12-28T01:58:45;12.52;;;6.65;;
67904;SDS011;54709;43.614;1.576;2023-12-28T02:01:11;8.73;;;6.07;;
67904;SDS011;54709;43.614;1.576;2023-12-28T02:03:37;10.20;;;6.38;;
67904;SDS011;54709;43.614;1.576;2023-12-28T02:06:03;9.05;;;5.72;;
67904;SDS011;54709;43.614;1.576;2023-12-28T02:08:29;9.07;;;5.70;;
67904;SDS011;54709;43.614;1.576;2023-12-28T02:10:55;8.48;;;5.97;;
67904;SDS011;54709;43.614;1.576;2023-12-28T02:13:20;10.80;;;6.57;;
67904;SDS011;54709;43.614;1.576;2023-12-28T02:15:46;8.85;;;6.20;;
67904;SDS011;54709;43.614;1.576;2023-12-28T02:18:12;8.77;;;5.78;;
67904;SDS011;54709;43.614;1.576;2023-12-28T02:20:42;11.25;;;6.38;;
67904;SDS011;54709;43.614;1.576;2023-12-28T02:23:09;11.13;;;7.20;;
67904;SDS011;54709;43.614;1.576;2023-12-28T02:25:35;10.25;;;7.68;;
67904;SDS011;54709;43.614;1.576;2023-12-28T02:28:00;10.07;;;7.10;;
67904;SDS011;54709;43.614;1.576;2023-12-28T02:30:25;11.13;;;6.90;;
67904;SDS011;54709;43.614;1.576;2023-12-28T02:33:02;9.00;;;6.57;;
67904;SDS011;54709;43.614;1.576;2023-12-28T02:35:52;9.60;;;7.13;;
67904;SDS011;54709;43.614;1.576;2023-12-28T02:38:19;12.90;;;7.55;;
67904;SDS011;54709;43.614;1.576;2023-12-28T02:40:45;12.35;;;7.45;;
67904;SDS011;54709;43.614;1.576;2023-12-28T02:43:11;11.82;;;7.75;;
67904;SDS011;54709;43.614;1.576;2023-12-28T02:45:37;8.32;;;7.25;;
67904;SDS011;54709;43.614;1.576;2023-12-28T02:48:03;15.13;;;7.10;;
67904;SDS011;54709;43.614;1.576;2023-12-28T02:50:29;11.48;;;7.80;;
67904;SDS011;54709;43.614;1.576;2023-12-28T02:52:57;11.05;;;7.00;;
67904;SDS011;54709;43.614;1.576;2023-12-28T02:55:23;10.82;;;7.20;;
67904;SDS011;54709;43.614;1.576;2023-12-28T02:57:49;12.57;;;7.65;;
67904;SDS011;54709;43.614;1.576;2023-12-28T03:00:15;11.50;;;7.05;;
67904;SDS011;54709;43.614;1.576;2023-12-28T03:02:41;10.10;;;7.28;;
67904;SDS011;54709;43.614;1.576;2023-12-28T03:05:06;11.88;;;7.00;;
67904;SDS011;54709;43.614;1.576;2023-12-28T03:07:32;9.77;;;7.20;;
67904;SDS011;54709;43.614;1.576;2023-12-28T03:09:58;15.07;;;7.40;;
67904;SDS011;54709;43.614;1.576;2023-12-28T03:12:24;9.02;;;6.60;;
67904;SDS011;54709;43.614;1.576;2023-12-28T03:14:49;10.45;;;6.63;;
67904;SDS011;54709;43.614;1.576;2023-12-28T03:17:15;11.45;;;7.82;;
67904;SDS011;54709;43.614;1.576;2023-12-28T03:19:40;12.88;;;8.38;;
67904;SDS011;54709;43.614;1.576;2023-12-28T03:22:06;14.05;;;8.93;;
67904;SDS011;54709;43.614;1.576;2023-12-28T03:24:31;15.07;;;10.25;;
67904;SDS011;54709;43.614;1.576;2023-12-28T03:26:56;14.18;;;7.80;;
67904;SDS011;54709;43.614;1.576;2023-12-28T03:29:22;10.35;;;6.72;;
67904;SDS011;54709;43.614;1.576;2023-12-28T03:31:47;10.52;;;7.30;;
67904;SDS011;54709;43.614;1.576;2023-12-28T03:34:13;11.07;;;7.28;;
67904;SDS011;54709;43.614;1.576;2023-12-28T03:36:38;10.93;;;7.13;;
67904;SDS011;54709;43.614;1.576;2023-12-28T03:39:04;9.10;;;6.50;;
67904;SDS011;54709;43.614;1.576;2023-12-28T03:41:30;12.55;;;7.20;;
67904;SDS011;54709;43.614;1.576;2023-12-28T03:43:56;10.68;;;6.70;;
67904;SDS011;54709;43.614;1.576;2023-12-28T03:46:21;8.07;;;6.25;;
67904;SDS011;54709;43.614;1.576;2023-12-28T03:48:47;10.95;;;6.63;;
67904;SDS011;54709;43.614;1.576;2023-12-28T03:51:15;10.15;;;6.50;;
67904;SDS011;54709;43.614;1.576;2023-12-28T03:53:41;9.65;;;6.80;;
67904;SDS011;54709;43.614;1.576;2023-12-28T03:56:07;10.45;;;6.20;;
67904;SDS011;54709;43.614;1.576;2023-12-28T03:58:32;10.70;;;6.00;;
67904;SDS011;54709;43.614;1.576;2023-12-28T04:00:58;9.85;;;6.63;;
67904;SDS011;54709;43.614;1.576;2023-12-28T04:03:23;9.52;;;6.60;;
67904;SDS011;54709;43.614;1.576;2023-12-28T04:05:50;9.63;;;6.55;;
67904;SDS011;54709;43.614;1.576;2023-12-28T04:08:15;11.40;;;6.15;;
67904;SDS011;54709;43.614;1.576;2023-12-28T04:10:41;7.90;;;5.70;;
67904;SDS011;54709;43.614;1.576;2023-12-28T04:13:06;8.13;;;6.00;;
67904;SDS011;54709;43.614;1.576;2023-12-28T04:15:32;8.93;;;6.03;;
67904;SDS011;54709;43.614;1.576;2023-12-28T04:17:57;8.05;;;5.82;;
67904;SDS011;54709;43.614;1.576;2023-12-28T04:20:22;8.25;;;5.47;;
67904;SDS011;54709;43.614;1.576;2023-12-28T04:22:48;7.40;;;5.65;;
67904;SDS011;54709;43.614;1.576;2023-12-28T04:25:13;7.20;;;5.70;;
67904;SDS011;54709;43.614;1.576;2023-12-28T04:27:41;8.35;;;5.55;;
67904;SDS011;54709;43.614;1.576;2023-12-28T04:30:07;9.00;;;5.10;;
67904;SDS011;54709;43.614;1.576;2023-12-28T04:32:32;6.47;;;4.85;;
67904;SDS011;54709;43.614;1.576;2023-12-28T04:34:58;8.98;;;5.65;;
67904;SDS011;54709;43.614;1.576;2023-12-28T04:37:23;7.75;;;5.35;;
67904;SDS011;54709;43.614;1.576;2023-12-28T04:39:49;9.23;;;5.43;;
67904;SDS011;54709;43.614;1.576;2023-12-28T04:42:14;9.50;;;5.63;;
67904;SDS011;54709;43.614;1.576;2023-12-28T04:44:39;8.25;;;5.10;;
67904;SDS011;54709;43.614;1.576;2023-12-28T04:47:05;11.68;;;5.97;;
67904;SDS011;54709;43.614;1.576;2023-12-28T04:49:31;6.82;;;5.80;;
67904;SDS011;54709;43.614;1.576;2023-12-28T04:51:56;9.45;;;5.57;;
67904;SDS011;54709;43.614;1.576;2023-12-28T04:54:22;8.10;;;4.82;;
67904;SDS011;54709;43.614;1.576;2023-12-28T04:56:48;10.50;;;5.53;;
67904;SDS011;54709;43.614;1.576;2023-12-28T04:59:13;9.52;;;5.22;;
67904;SDS011;54709;43.614;1.576;2023-12-28T05:01:44;8.02;;;4.75;;
67904;SDS011;54709;43.614;1.576;2023-12-28T05:04:10;7.22;;;5.15;;
67904;SDS011;54709;43.614;1.576;2023-12-28T05:06:35;8.27;;;4.93;;
67904;SDS011;54709;43.614;1.576;2023-12-28T05:09:01;7.07;;;4.65;;
67904;SDS011;54709;43.614;1.576;2023-12-28T05:11:26;9.20;;;4.93;;
67904;SDS011;54709;43.614;1.576;2023-12-28T05:13:52;8.70;;;4.63;;
67904;SDS011;54709;43.614;1.576;2023-12-28T05:16:18;7.15;;;4.72;;
67904;SDS011;54709;43.614;1.576;2023-12-28T05:18:44;10.65;;;4.65;;
67904;SDS011;54709;43.614;1.576;2023-12-28T05:21:09;8.98;;;4.95;;
67904;SDS011;54709;43.614;1.576;2023-12-28T05:23:34;7.95;;;4.43;;
67904;SDS011;54709;43.614;1.576;2023-12-28T05:26:00;8.02;;;5.20;;
67904;SDS011;54709;43.614;1.576;2023-12-28T05:28:25;6.85;;;4.55;;
67904;SDS011;54709;43.614;1.576;2023-12-28T05:30:50;10.10;;;4.50;;
67904;SDS011;54709;43.614;1.576;2023-12-28T05:33:16;7.63;;;4.90;;
67904;SDS011;54709;43.614;1.576;2023-12-28T05:35:41;7.45;;;5.00;;
67904;SDS011;54709;43.614;1.576;2023-12-28T05:38:06;11.57;;;4.72;;
67904;SDS011;54709;43.614;1.576;2023-12-28T05:40:32;11.88;;;4.50;;
67904;SDS011;54709;43.614;1.576;2023-12-28T05:42:57;7.43;;;4.50;;
67904;SDS011;54709;43.614;1.576;2023-12-28T05:45:22;10.27;;;5.00;;
67904;SDS011;54709;43.614;1.576;2023-12-28T05:47:48;7.78;;;4.43;;
67904;SDS011;54709;43.614;1.576;2023-12-28T05:50:13;7.97;;;4.20;;
67904;SDS011;54709;43.614;1.576;2023-12-28T05:52:38;6.15;;;4.63;;
67904;SDS011;54709;43.614;1.576;2023-12-28T05:55:04;10.85;;;4.32;;
67904;SDS011;54709;43.614;1.576;2023-12-28T05:57:30;6.97;;;3.95;;
67904;SDS011;54709;43.614;1.576;2023-12-28T05:59:56;11.30;;;4.78;;
67904;SDS011;54709;43.614;1.576;2023-12-28T06:02:22;6.00;;;4.13;;
67904;SDS011;54709;43.614;1.576;2023-12-28T06:04:47;5.65;;;4.00;;
67904;SDS011;54709;43.614;1.576;2023-12-28T06:07:12;7.35;;;4.53;;
67904;SDS011;54709;43.614;1.576;2023-12-28T06:09:38;7.30;;;4.30;;
67904;SDS011;54709;43.614;1.576;2023-12-28T06:12:07;6.82;;;3.83;;
67904;SDS011;54709;43.614;1.576;2023-12-28T06:14:32;6.47;;;4.10;;
67904;SDS011;54709;43.614;1.576;2023-12-28T06:16:57;7.30;;;4.20;;
67904;SDS011;54709;43.614;1.576;2023-12-28T06:19:23;7.32;;;3.72;;
67904;SDS011;54709;43.614;1.576;2023-12-28T06:21:48;8.95;;;4.10;;
67904;SDS011;54709;43.614;1.576;2023-12-28T06:24:14;6.03;;;3.38;;
67904;SDS011;54709;43.614;1.576;2023-12-28T06:26:40;4.95;;;3.85;;
67904;SDS011;54709;43.614;1.576;2023-12-28T06:29:09;7.53;;;4.15;;
67904;SDS011;54709;43.614;1.576;2023-12-28T06:31:35;7.72;;;4.30;;
67904;SDS011;54709;43.614;1.576;2023-12-28T06:34:03;6.07;;;4.07;;
67904;SDS011;54709;43.614;1.576;2023-12-28T06:36:29;9.68;;;3.88;;
67904;SDS011;54709;43.614;1.576;2023-12-28T06:38:55;6.25;;;4.30;;
67904;SDS011;54709;43.614;1.576;2023-12-28T06:41:20;7.50;;;4.13;;
67904;SDS011;54709;43.614;1.576;2023-12-28T06:43:46;5.78;;;4.10;;
67904;SDS011;54709;43.614;1.576;2023-12-28T06:46:11;6.72;;;4.72;;
67904;SDS011;54709;43.614;1.576;2023-12-28T06:48:36;8.02;;;4.25;;
67904;SDS011;54709;43.614;1.576;2023-12-28T06:51:05;10.20;;;4.30;;
67904;SDS011;54709;43.614;1.576;2023-12-28T06:53:30;10.68;;;4.40;;
67904;SDS011;54709;43.614;1.576;2023-12-28T06:55:56;8.48;;;3.90;;
67904;SDS011;54709;43.614;1.576;2023-12-28T06:58:21;6.65;;;3.83;;
67904;SDS011;54709;43.614;1.576;2023-12-28T07:00:46;7.03;;;3.78;;
67904;SDS011;54709;43.614;1.576;2023-12-28T07:03:12;6.95;;;3.67;;
67904;SDS011;54709;43.614;1.576;2023-12-28T07:05:37;6.35;;;4.18;;
67904;SDS011;54709;43.614;1.576;2023-12-28T07:08:03;9.27;;;4.47;;
67904;SDS011;54709;43.614;1.576;2023-12-28T07:10:28;9.90;;;4.40;;
67904;SDS011;54709;43.614;1.576;2023-12-28T07:12:54;11.98;;;4.38;;
67904;SDS011;54709;43.614;1.576;2023-12-28T07:15:19;8.10;;;4.28;;
67904;SDS011;54709;43.614;1.576;2023-12-28T07:17:45;8.07;;;4.00;;
67904;SDS011;54709;43.614;1.576;2023-12-28T07:20:10;7.75;;;4.30;;
67904;SDS011;54709;43.614;1.576;2023-12-28T07:22:36;7.95;;;4.30;;
67904;SDS011;54709;43.614;1.576;2023-12-28T07:25:02;6.32;;;4.43;;
67904;SDS011;54709;43.614;1.576;2023-12-28T07:27:28;9.77;;;4.82;;
67904;SDS011;54709;43.614;1.576;2023-12-28T07:29:53;7.90;;;4.40;;
67904;SDS011;54709;43.614;1.576;2023-12-28T07:32:19;7.20;;;4.00;;
67904;SDS011;54709;43.614;1.576;2023-12-28T07:34:45;10.23;;;4.20;;
67904;SDS011;54709;43.614;1.576;2023-12-28T07:37:10;9.00;;;4.03;;
67904;SDS011;54709;43.614;1.576;2023-12-28T07:39:36;10.43;;;4.78;;
67904;SDS011;54709;43.614;1.576;2023-12-28T07:42:01;9.07;;;4.20;;
67904;SDS011;54709;43.614;1.576;2023-12-28T07:44:27;9.32;;;4.15;;
67904;SDS011;54709;43.614;1.576;2023-12-28T07:46:52;9.15;;;4.20;;
67904;SDS011;54709;43.614;1.576;2023-12-28T07:49:18;9.52;;;4.55;;
67904;SDS011;54709;43.614;1.576;2023-12-28T07:51:43;7.80;;;4.40;;
67904;SDS011;54709;43.614;1.576;2023-12-28T07:54:08;9.48;;;4.30;;
67904;SDS011;54709;43.614;1.576;2023-12-28T07:56:34;6.38;;;4.05;;
67904;SDS011;54709;43.614;1.576;2023-12-28T07:58:59;5.93;;;3.85;;
67904;SDS011;54709;43.614;1.576;2023-12-28T08:01:24;8.25;;;4.32;;
67904;SDS011;54709;43.614;1.576;2023-12-28T08:03:50;9.18;;;4.38;;
67904;SDS011;54709;43.614;1.576;2023-12-28T08:06:15;8.57;;;5.15;;
67904;SDS011;54709;43.614;1.576;2023-12-28T08:08:41;11.88;;;4.57;;
67904;SDS011;54709;43.614;1.576;2023-12-28T08:11:06;8.13;;;4.70;;
67904;SDS011;54709;43.614;1.576;2023-12-28T08:13:32;9.43;;;4.32;;
67904;SDS011;54709;43.614;1.576;2023-12-28T08:15:57;13.00;;;4.82;;
67904;SDS011;54709;43.614;1.576;2023-12-28T08:18:22;8.32;;;4.15;;
67904;SDS011;54709;43.614;1.576;2023-12-28T08:20:48;6.78;;;3.88;;
67904;SDS011;54709;43.614;1.576;2023-12-28T08:23:15;6.10;;;3.70;;
67904;SDS011;54709;43.614;1.576;2023-12-28T08:25:40;12.38;;;4.07;;
67904;SDS011;54709;43.614;1.576;2023-12-28T08:28:05;7.60;;;4.15;;
67904;SDS011;54709;43.614;1.576;2023-12-28T08:30:31;9.20;;;4.07;;
67904;SDS011;54709;43.614;1.576;2023-12-28T08:32:56;7.97;;;3.70;;
67904;SDS011;54709;43.614;1.576;2023-12-28T08:35:21;6.53;;;3.90;;
67904;SDS011;54709;43.614;1.576;2023-12-28T08:37:47;10.45;;;4.22;;
67904;SDS011;54709;43.614;1.576;2023-12-28T08:40:12;9.98;;;3.88;;
67904;SDS011;54709;43.614;1.576;2023-12-28T08:42:38;9.70;;;4.10;;
67904;SDS011;54709;43.614;1.576;2023-12-28T08:45:04;10.20;;;4.65;;
67904;SDS011;54709;43.614;1.576;2023-12-28T08:47:29;8.80;;;4.38;;
67904;SDS011;54709;43.614;1.576;2023-12-28T08:49:54;11.95;;;4.82;;
67904;SDS011;54709;43.614;1.576;2023-12-28T08:52:20;17.75;;;4.25;;
67904;SDS011;54709;43.614;1.576;2023-12-28T08:54:45;12.98;;;4.28;;
67904;SDS011;54709;43.614;1.576;2023-12-28T08:57:11;7.38;;;4.00;;
67904;SDS011;54709;43.614;1.576;2023-12-28T08:59:36;8.77;;;4.13;;
67904;SDS011;54709;43.614;1.576;2023-12-28T09:02:02;7.38;;;4.03;;
67904;SDS011;54709;43.614;1.576;2023-12-28T09:04:27;7.90;;;4.07;;
67904;SDS011;54709;43.614;1.576;2023-12-28T09:06:53;8.65;;;4.30;;
67904;SDS011;54709;43.614;1.576;2023-12-28T09:09:18;7.80;;;3.40;;
67904;SDS011;54709;43.614;1.576;2023-12-28T09:11:44;8.82;;;4.22;;
67904;SDS011;54709;43.614;1.576;2023-12-28T09:14:09;8.70;;;4.13;;
67904;SDS011;54709;43.614;1.576;2023-12-28T09:16:34;8.30;;;4.05;;
67904;SDS011;54709;43.614;1.576;2023-12-28T09:19:00;9.63;;;4.40;;
67904;SDS011;54709;43.614;1.576;2023-12-28T09:21:26;10.38;;;4.63;;
67904;SDS011;54709;43.614;1.576;2023-12-28T09:23:52;7.93;;;4.40;;
67904;SDS011;54709;43.614;1.576;2023-12-28T09:26:17;8.27;;;4.30;;
67904;SDS011;54709;43.614;1.576;2023-12-28T09:28:43;7.25;;;3.92;;
67904;SDS011;54709;43.614;1.576;2023-12-28T09:31:08;7.03;;;3.75;;
67904;SDS011;54709;43.614;1.576;2023-12-28T09:33:34;12.18;;;4.45;;
67904;SDS011;54709;43.614;1.576;2023-12-28T09:35:59;9.63;;;4.15;;
67904;SDS011;54709;43.614;1.576;2023-12-28T09:38:25;9.15;;;4.50;;
67904;SDS011;54709;43.614;1.576;2023-12-28T09:40:52;8.85;;;4.32;;
67904;SDS011;54709;43.614;1.576;2023-12-28T09:43:22;9.70;;;4.88;;
67904;SDS011;54709;43.614;1.576;2023-12-28T09:45:52;10.55;;;4.97;;
67904;SDS011;54709;43.614;1.576;2023-12-28T09:48:18;9.82;;;4.70;;
67904;SDS011;54709;43.614;1.576;2023-12-28T09:50:45;10.57;;;4.82;;
67904;SDS011;54709;43.614;1.576;2023-12-28T09:53:14;8.57;;;4.82;;
67904;SDS011;54709;43.614;1.576;2023-12-28T09:55:39;7.35;;;4.95;;
67904;SDS011;54709;43.614;1.576;2023-12-28T09:58:05;11.68;;;5.60;;
67904;SDS011;54709;43.614;1.576;2023-12-28T10:00:31;11.15;;;5.28;;
67904;SDS011;54709;43.614;1.576;2023-12-28T10:02:56;8.38;;;5.45;;
67904;SDS011;54709;43.614;1.576;2023-12-28T10:05:21;10.85;;;4.97;;
67904;SDS011;54709;43.614;1.576;2023-12-28T10:07:47;11.00;;;5.95;;
67904;SDS011;54709;43.614;1.576;2023-12-28T10:10:12;9.63;;;5.13;;
67904;SDS011;54709;43.614;1.576;2023-12-28T10:12:38;7.70;;;5.80;;
67904;SDS011;54709;43.614;1.576;2023-12-28T10:15:04;12.77;;;5.70;;
67904;SDS011;54709;43.614;1.576;2023-12-28T10:17:32;11.48;;;5.18;;
67904;SDS011;54709;43.614;1.576;2023-12-28T10:20:01;12.35;;;5.38;;
67904;SDS011;54709;43.614;1.576;2023-12-28T10:22:31;11.13;;;5.50;;
67904;SDS011;54709;43.614;1.576;2023-12-28T10:24:58;9.45;;;5.70;;
67904;SDS011;54709;43.614;1.576;2023-12-28T10:27:24;9.57;;;6.03;;
67904;SDS011;54709;43.614;1.576;2023-12-28T10:29:52;8.95;;;6.00;;
67904;SDS011;54709;43.614;1.576;2023-12-28T10:32:21;12.30;;;6.00;;
67904;SDS011;54709;43.614;1.576;2023-12-28T10:34:47;12.02;;;6.55;;
67904;SDS011;54709;43.614;1.576;2023-12-28T10:37:13;9.63;;;5.80;;
67904;SDS011;54709;43.614;1.576;2023-12-28T10:39:39;12.48;;;6.55;;
67904;SDS011;54709;43.614;1.576;2023-12-28T10:42:08;8.50;;;5.82;;
67904;SDS011;54709;43.614;1.576;2023-12-28T10:44:35;11.32;;;5.50;;
67904;SDS011;54709;43.614;1.576;2023-12-28T10:47:01;11.95;;;5.88;;
67904;SDS011;54709;43.614;1.576;2023-12-28T10:49:27;15.65;;;6.05;;
67904;SDS011;54709;43.614;1.576;2023-12-28T10:51:55;10.60;;;6.25;;
67904;SDS011;54709;43.614;1.576;2023-12-28T10:54:29;9.20;;;6.25;;
67904;SDS011;54709;43.614;1.576;2023-12-28T11:02:18;12.10;;;6.90;;
67904;SDS011;54709;43.614;1.576;2023-12-28T11:04:50;10.90;;;6.75;;
67904;SDS011;54709;43.614;1.576;2023-12-28T11:07:17;10.95;;;7.25;;
67904;SDS011;54709;43.614;1.576;2023-12-28T11:09:43;11.27;;;7.55;;
67904;SDS011;54709;43.614;1.576;2023-12-28T11:12:09;13.18;;;6.82;;
67904;SDS011;54709;43.614;1.576;2023-12-28T11:14:40;9.02;;;6.60;;
67904;SDS011;54709;43.614;1.576;2023-12-28T11:17:06;15.20;;;6.45;;
67904;SDS011;54709;43.614;1.576;2023-12-28T11:19:32;13.10;;;7.10;;
67904;SDS011;54709;43.614;1.576;2023-12-28T11:21:59;13.32;;;7.30;;
67904;SDS011;54709;43.614;1.576;2023-12-28T11:24:26;13.98;;;7.10;;
67904;SDS011;54709;43.614;1.576;2023-12-28T11:26:53;9.45;;;6.68;;
67904;SDS011;54709;43.614;1.576;2023-12-28T11:29:19;12.65;;;7.43;;
67904;SDS011;54709;43.614;1.576;2023-12-28T11:31:50;9.40;;;6.90;;
67904;SDS011;54709;43.614;1.576;2023-12-28T11:34:19;16.70;;;7.40;;
67904;SDS011;54709;43.614;1.576;2023-12-28T11:36:49;12.50;;;6.72;;
67904;SDS011;54709;43.614;1.576;2023-12-28T11:39:20;9.50;;;6.85;;
67904;SDS011;54709;43.614;1.576;2023-12-28T11:41:51;12.20;;;6.15;;
67904;SDS011;54709;43.614;1.576;2023-12-28T11:44:40;9.52;;;6.20;;
67904;SDS011;54709;43.614;1.576;2023-12-28T11:47:22;9.35;;;6.07;;
67904;SDS011;54709;43.614;1.576;2023-12-28T11:49:48;7.55;;;5.90;;
67904;SDS011;54709;43.614;1.576;2023-12-28T11:52:49;11.00;;;6.03;;
67904;SDS011;54709;43.614;1.576;2023-12-28T11:55:08;8.25;;;5.95;;
67904;SDS011;54709;43.614;1.576;2023-12-28T11:57:35;7.03;;;5.38;;
67904;SDS011;54709;43.614;1.576;2023-12-28T12:00:02;10.50;;;5.40;;
67904;SDS011;54709;43.614;1.576;2023-12-28T12:02:29;8.45;;;5.10;;
67904;SDS011;54709;43.614;1.576;2023-12-28T12:04:54;12.25;;;5.97;;
67904;SDS011;54709;43.614;1.576;2023-12-28T12:07:23;11.18;;;6.78;;
67904;SDS011;54709;43.614;1.576;2023-12-28T12:09:49;11.48;;;6.20;;
67904;SDS011;54709;43.614;1.576;2023-12-28T12:12:15;11.20;;;6.03;;
67904;SDS011;54709;43.614;1.576;2023-12-28T12:14:41;11.32;;;6.10;;
67904;SDS011;54709;43.614;1.576;2023-12-28T12:17:06;10.00;;;6.05;;
67904;SDS011;54709;43.614;1.576;2023-12-28T12:19:31;8.70;;;5.80;;
67904;SDS011;54709;43.614;1.576;2023-12-28T12:21:57;10.73;;;5.85;;
67904;SDS011;54709;43.614;1.576;2023-12-28T12:24:23;10.82;;;6.63;;
67904;SDS011;54709;43.614;1.576;2023-12-28T12:26:52;11.70;;;6.20;;
67904;SDS011;54709;43.614;1.576;2023-12-28T12:29:17;6.90;;;5.18;;
67904;SDS011;54709;43.614;1.576;2023-12-28T12:31:43;10.75;;;6.32;;
67904;SDS011;54709;43.614;1.576;2023-12-28T12:34:10;10.40;;;5.60;;
67904;SDS011;54709;43.614;1.576;2023-12-28T12:36:35;9.52;;;5.90;;
67904;SDS011;54709;43.614;1.576;2023-12-28T12:39:01;9.15;;;5.95;;
67904;SDS011;54709;43.614;1.576;2023-12-28T12:41:28;9.85;;;5.47;;
67904;SDS011;54709;43.614;1.576;2023-12-28T12:43:53;8.95;;;6.18;;
67904;SDS011;54709;43.614;1.576;2023-12-28T12:46:21;10.45;;;5.30;;
67904;SDS011;54709;43.614;1.576;2023-12-28T12:48:57;10.52;;;6.13;;
67904;SDS011;54709;43.614;1.576;2023-12-28T12:51:24;8.05;;;5.93;;
67904;SDS011;54709;43.614;1.576;2023-12-28T12:53:50;7.72;;;5.90;;
67904;SDS011;54709;43.614;1.576;2023-12-28T12:56:15;11.65;;;6.53;;
67904;SDS011;54709;43.614;1.576;2023-12-28T12:58:43;9.65;;;5.30;;
67904;SDS011;54709;43.614;1.576;2023-12-28T13:01:11;7.93;;;6.00;;
67904;SDS011;54709;43.614;1.576;2023-12-28T13:03:37;8.98;;;5.72;;
67904;SDS011;54709;43.614;1.576;2023-12-28T13:06:03;8.32;;;5.53;;
67904;SDS011;54709;43.614;1.576;2023-12-28T13:08:29;8.07;;;5.82;;
67904;SDS011;54709;43.614;1.576;2023-12-28T13:10:54;12.88;;;6.45;;
67904;SDS011;54709;43.614;1.576;2023-12-28T13:13:19;10.93;;;6.07;;
67904;SDS011;54709;43.614;1.576;2023-12-28T13:15:45;8.63;;;6.18;;
67904;SDS011;54709;43.614;1.576;2023-12-28T13:18:10;8.13;;;6.38;;
67904;SDS011;54709;43.614;1.576;2023-12-28T13:20:36;9.18;;;6.32;;
67904;SDS011;54709;43.614;1.576;2023-12-28T13:23:01;9.75;;;6.50;;
67904;SDS011;54709;43.614;1.576;2023-12-28T13:25:27;10.27;;;6.57;;
67904;SDS011;54709;43.614;1.576;2023-12-28T13:27:52;9.98;;;6.30;;
67904;SDS011;54709;43.614;1.576;2023-12-28T13:30:18;12.57;;;6.80;;
67904;SDS011;54709;43.614;1.576;2023-12-28T13:32:44;9.73;;;6.50;;
67904;SDS011;54709;43.614;1.576;2023-12-28T13:35:09;11.80;;;6.43;;
67904;SDS011;54709;43.614;1.576;2023-12-28T13:37:34;9.10;;;6.30;;
67904;SDS011;54709;43.614;1.576;2023-12-28T13:40:00;9.05;;;6.18;;
67904;SDS011;54709;43.614;1.576;2023-12-28T13:42:25;9.90;;;6.55;;
67904;SDS011;54709;43.614;1.576;2023-12-28T13:44:50;8.85;;;5.68;;
67904;SDS011;54709;43.614;1.576;2023-12-28T13:47:16;8.20;;;6.40;;
67904;SDS011;54709;43.614;1.576;2023-12-28T13:49:41;12.00;;;6.57;;
67904;SDS011;54709;43.614;1.576;2023-12-28T13:52:06;9.65;;;6.80;;
67904;SDS011;54709;43.614;1.576;2023-12-28T13:54:32;8.73;;;6.38;;
67904;SDS011;54709;43.614;1.576;2023-12-28T13:56:57;11.70;;;7.88;;
67904;SDS011;54709;43.614;1.576;2023-12-28T13:59:24;10.48;;;7.18;;
67904;SDS011;54709;43.614;1.576;2023-12-28T14:01:49;9.40;;;7.05;;
67904;SDS011;54709;43.614;1.576;2023-12-28T14:04:15;12.80;;;8.80;;
67904;SDS011;54709;43.614;1.576;2023-12-28T14:06:40;9.50;;;7.20;;
67904;SDS011;54709;43.614;1.576;2023-12-28T14:09:05;11.27;;;7.40;;
67904;SDS011;54709;43.614;1.576;2023-12-28T14:11:31;9.43;;;6.53;;
67904;SDS011;54709;43.614;1.576;2023-12-28T14:13:56;14.95;;;8.38;;
67904;SDS011;54709;43.614;1.576;2023-12-28T14:16:22;11.60;;;8.27;;
67904;SDS011;54709;43.614;1.576;2023-12-28T14:18:48;13.80;;;7.43;;
67904;SDS011;54709;43.614;1.576;2023-12-28T14:21:14;12.77;;;7.50;;
67904;SDS011;54709;43.614;1.576;2023-12-28T14:23:40;12.57;;;7.07;;
67904;SDS011;54709;43.614;1.576;2023-12-28T14:26:10;9.80;;;6.72;;
67904;SDS011;54709;43.614;1.576;2023-12-28T14:28:37;11.10;;;6.80;;
67904;SDS011;54709;43.614;1.576;2023-12-28T14:31:03;11.38;;;6.63;;
67904;SDS011;54709;43.614;1.576;2023-12-28T14:33:29;13.00;;;6.78;;
67904;SDS011;54709;43.614;1.576;2023-12-28T14:35:54;14.57;;;7.20;;
67904;SDS011;54709;43.614;1.576;2023-12-28T14:38:20;11.20;;;6.93;;
67904;SDS011;54709;43.614;1.576;2023-12-28T14:40:45;8.48;;;6.57;;